NCAR-RAP Real-Time Weather Data

Output produced by METARs form (12 August 2020  18:36 UTC)
found at http://weather.rap.ucar.edu/surface/
 
KHLN 121753Z 03004KT 10SM CLR 28/03 A2983 RMK AO2 SLP074 T02830033 10283 20111 56002
KHLN 121653Z VRB03KT 10SM CLR 26/03 A2983 RMK AO2 SLP078 T02560028
KHLN 121553Z 08003KT 10SM CLR 23/02 A2982 RMK AO2 SLP077 T02280022
KHLN 121453Z 00000KT 10SM CLR 18/02 A2983 RMK AO2 SLP083 T01780022 50003
KHLN 121353Z 33004KT 10SM CLR 16/02 A2984 RMK AO2 SLP080 T01610022
KHLN 121253Z AUTO 31003KT 10SM CLR 11/03 A2984 RMK AO2 SLP086 T01110033 TSNO
KHLN 121153Z AUTO 22004KT 10SM CLR 14/03 A2983 RMK AO2 SLP075 T01390033 10217 20117 52005 TSNO
KHLN 121053Z AUTO 14003KT 10SM CLR 16/02 A2982 RMK AO2 SLP072 T01560017 TSNO
KHLN 120953Z AUTO 26003KT 10SM CLR 15/02 A2982 RMK AO2 SLP074 T01500017 TSNO
KHLN 120853Z AUTO 00000KT 10SM CLR 17/02 A2981 RMK AO2 SLP069 T01720017 53001
KHLN 120753Z AUTO 14005KT 10SM CLR 19/01 A2979 RMK AO2 SLP064 T01890006
KHLN 120653Z AUTO 00000KT 10SM CLR 19/01 A2981 RMK AO2 SLP071 T01890011 403440117
KHLN 120553Z AUTO 23004KT 10SM CLR 22/M01 A2980 RMK AO2 SLP066 T02171006 10339 20200 50005
KHLN 120453Z AUTO 25007KT 10SM CLR 21/01 A2980 RMK AO2 SLP071 T02110006
KHLN 120353Z AUTO 08004KT 10SM CLR 23/01 A2980 RMK AO2 SLP073 T02280006
KHLN 120253Z AUTO 27007KT 10SM CLR 27/M01 A2979 RMK AO2 SLP066 T02671011 55000
KHLN 120153Z AUTO 29007KT 10SM CLR 31/M02 A2977 RMK AO2 SLP057 T03111022
KHLN 120053Z AUTO 30012KT 10SM CLR 33/M02 A2977 RMK AO2 SLP057 T03281022
KHLN 112353Z AUTO 30006KT 10SM CLR 33/M01 A2979 RMK AO2 SLP062 T03331006 10344 20272 56017
KHLN 112253Z AUTO 18009G14KT 10SM CLR 32/02 A2980 RMK AO2 SLP068 T03220022